sensor_id;sensor_type;location;lat;lon;timestamp;pressure;altitude;pressure_sealevel;temperature;humidity
37142;BME280;23041;49.816;20.092;2022-10-16T00:01:29;97860.09;;;15.68;50.98
37142;BME280;23041;49.816;20.092;2022-10-16T00:03:58;97860.88;;;15.64;50.97
37142;BME280;23041;49.816;20.092;2022-10-16T00:06:26;97870.88;;;15.70;50.96
37142;BME280;23041;49.816;20.092;2022-10-16T00:08:53;97868.11;;;15.70;50.96
37142;BME280;23041;49.816;20.092;2022-10-16T00:11:22;97869.66;;;15.71;50.96
37142;BME280;23041;49.816;20.092;2022-10-16T00:13:54;97863.34;;;15.71;50.94
37142;BME280;23041;49.816;20.092;2022-10-16T00:16:23;97874.86;;;15.69;50.96
37142;BME280;23041;49.816;20.092;2022-10-16T00:18:50;97873.16;;;15.67;50.97
37142;BME280;23041;49.816;20.092;2022-10-16T00:21:19;97884.23;;;15.67;50.99
37142;BME280;23041;49.816;20.092;2022-10-16T00:23:52;97882.72;;;15.66;51.04
37142;BME280;23041;49.816;20.092;2022-10-16T00:26:19;97888.38;;;15.67;51.05
37142;BME280;23041;49.816;20.092;2022-10-16T00:28:50;97885.77;;;15.64;51.09
37142;BME280;23041;49.816;20.092;2022-10-16T00:31:19;97892.98;;;15.61;51.15
37142;BME280;23041;49.816;20.092;2022-10-16T00:33:46;97883.61;;;15.63;51.17
37142;BME280;23041;49.816;20.092;2022-10-16T00:36:15;97886.38;;;15.63;51.17
37142;BME280;23041;49.816;20.092;2022-10-16T00:38:46;97884.67;;;15.61;51.19
37142;BME280;23041;49.816;20.092;2022-10-16T00:41:16;97885.77;;;15.59;51.24
37142;BME280;23041;49.816;20.092;2022-10-16T00:43:51;97902.53;;;15.60;51.28
37142;BME280;23041;49.816;20.092;2022-10-16T00:49:04;97890.37;;;15.58;51.36
37142;BME280;23041;49.816;20.092;2022-10-16T00:51:36;97892.52;;;15.58;51.38
37142;BME280;23041;49.816;20.092;2022-10-16T00:54:10;97901.11;;;15.56;51.42
37142;BME280;23041;49.816;20.092;2022-10-16T00:56:43;97899.08;;;15.51;51.47
37142;BME280;23041;49.816;20.092;2022-10-16T00:59:27;97906.44;;;15.50;51.55
37142;BME280;23041;49.816;20.092;2022-10-16T01:01:56;97908.43;;;15.45;51.65
37142;BME280;23041;49.816;20.092;2022-10-16T01:04:23;97909.52;;;15.43;51.76
37142;BME280;23041;49.816;20.092;2022-10-16T01:09:31;97904.16;;;15.48;51.93
37142;BME280;23041;49.816;20.092;2022-10-16T01:15:03;97912.58;;;15.45;52.08
37142;BME280;23041;49.816;20.092;2022-10-16T01:17:48;97906.31;;;15.49;52.13
37142;BME280;23041;49.816;20.092;2022-10-16T01:20:27;97919.66;;;15.50;52.18
37142;BME280;23041;49.816;20.092;2022-10-16T01:28:47;97912.34;;;15.57;52.16
37142;BME280;23041;49.816;20.092;2022-10-16T01:31:06;97901.14;;;15.60;52.18
37142;BME280;23041;49.816;20.092;2022-10-16T01:33:45;97926.33;;;15.58;52.19
37142;BME280;23041;49.816;20.092;2022-10-16T01:36:25;97910.05;;;15.60;52.21
37142;BME280;23041;49.816;20.092;2022-10-16T01:38:54;97918.81;;;15.63;52.21
37142;BME280;23041;49.816;20.092;2022-10-16T01:41:26;97908.52;;;15.63;52.20
37142;BME280;23041;49.816;20.092;2022-10-16T01:44:10;97908.36;;;15.62;52.21
37142;BME280;23041;49.816;20.092;2022-10-16T01:46:39;97912.21;;;15.60;52.23
37142;BME280;23041;49.816;20.092;2022-10-16T01:49:09;97918.80;;;15.58;52.28
37142;BME280;23041;49.816;20.092;2022-10-16T01:51:37;97933.86;;;15.57;52.29
37142;BME280;23041;49.816;20.092;2022-10-16T01:54:05;97914.33;;;15.56;52.32
37142;BME280;23041;49.816;20.092;2022-10-16T01:56:34;97914.81;;;15.55;52.35
37142;BME280;23041;49.816;20.092;2022-10-16T01:59:06;97945.23;;;15.55;52.39
37142;BME280;23041;49.816;20.092;2022-10-16T02:01:36;97938.93;;;15.54;52.46
37142;BME280;23041;49.816;20.092;2022-10-16T02:04:18;97922.78;;;15.53;52.48
37142;BME280;23041;49.816;20.092;2022-10-16T02:06:45;97925.55;;;15.53;52.52
37142;BME280;23041;49.816;20.092;2022-10-16T02:09:11;97934.02;;;15.54;52.56
37142;BME280;23041;49.816;20.092;2022-10-16T02:11:38;97930.89;;;15.51;52.57
37142;BME280;23041;49.816;20.092;2022-10-16T02:14:05;97933.23;;;15.53;52.60
37142;BME280;23041;49.816;20.092;2022-10-16T02:16:39;97946.11;;;15.51;52.62
37142;BME280;23041;49.816;20.092;2022-10-16T02:19:07;97952.70;;;15.49;52.63
37142;BME280;23041;49.816;20.092;2022-10-16T02:27:05;97946.09;;;15.47;52.73
37142;BME280;23041;49.816;20.092;2022-10-16T02:29:47;97941.17;;;15.46;52.75
37142;BME280;23041;49.816;20.092;2022-10-16T02:32:19;97949.47;;;15.46;52.78
37142;BME280;23041;49.816;20.092;2022-10-16T02:34:49;97936.09;;;15.45;52.81
37142;BME280;23041;49.816;20.092;2022-10-16T02:37:17;97942.06;;;15.43;52.85
37142;BME280;23041;49.816;20.092;2022-10-16T02:39:44;97926.41;;;15.45;52.87
37142;BME280;23041;49.816;20.092;2022-10-16T02:42:14;97935.92;;;15.44;52.88
37142;BME280;23041;49.816;20.092;2022-10-16T02:44:40;97950.36;;;15.43;52.92
37142;BME280;23041;49.816;20.092;2022-10-16T02:47:07;97940.23;;;15.40;52.93
37142;BME280;23041;49.816;20.092;2022-10-16T02:49:33;97938.84;;;15.40;52.97
37142;BME280;23041;49.816;20.092;2022-10-16T02:52:00;97939.12;;;15.38;52.99
37142;BME280;23041;49.816;20.092;2022-10-16T02:54:26;97943.59;;;15.35;53.01
37142;BME280;23041;49.816;20.092;2022-10-16T02:56:53;97943.10;;;15.32;53.02
37142;BME280;23041;49.816;20.092;2022-10-16T02:59:19;97937.27;;;15.30;53.07
37142;BME280;23041;49.816;20.092;2022-10-16T03:01:46;97937.09;;;15.25;53.11
37142;BME280;23041;49.816;20.092;2022-10-16T03:04:12;97932.45;;;15.22;53.17
37142;BME280;23041;49.816;20.092;2022-10-16T03:06:38;97955.02;;;15.20;53.24
37142;BME280;23041;49.816;20.092;2022-10-16T03:09:05;97959.64;;;15.19;53.30
37142;BME280;23041;49.816;20.092;2022-10-16T03:11:31;97959.48;;;15.18;53.35
37142;BME280;23041;49.816;20.092;2022-10-16T03:13:57;97957.48;;;15.18;53.39
37142;BME280;23041;49.816;20.092;2022-10-16T03:16:24;97961.75;;;15.15;53.47
37142;BME280;23041;49.816;20.092;2022-10-16T03:18:50;97954.67;;;15.13;53.51
37142;BME280;23041;49.816;20.092;2022-10-16T03:21:16;97945.31;;;15.11;53.57
37142;BME280;23041;49.816;20.092;2022-10-16T03:23:43;97950.23;;;15.11;53.64
37142;BME280;23041;49.816;20.092;2022-10-16T03:26:09;97957.59;;;15.10;53.68
37142;BME280;23041;49.816;20.092;2022-10-16T03:28:35;97952.05;;;15.05;53.71
37142;BME280;23041;49.816;20.092;2022-10-16T03:31:02;97958.79;;;15.04;53.73
37142;BME280;23041;49.816;20.092;2022-10-16T03:33:28;97959.39;;;15.04;53.77
37142;BME280;23041;49.816;20.092;2022-10-16T03:35:55;97960.78;;;15.04;53.80
37142;BME280;23041;49.816;20.092;2022-10-16T03:38:21;97951.69;;;14.99;53.82
37142;BME280;23041;49.816;20.092;2022-10-16T03:40:48;97965.79;;;14.96;53.87
37142;BME280;23041;49.816;20.092;2022-10-16T03:43:15;97973.17;;;14.95;53.93
37142;BME280;23041;49.816;20.092;2022-10-16T03:45:41;97962.56;;;14.93;53.99
37142;BME280;23041;49.816;20.092;2022-10-16T03:48:08;97983.45;;;14.94;54.05
37142;BME280;23041;49.816;20.092;2022-10-16T03:50:36;97986.52;;;14.96;54.09
37142;BME280;23041;49.816;20.092;2022-10-16T03:53:03;97985.61;;;14.95;54.17
37142;BME280;23041;49.816;20.092;2022-10-16T03:55:30;97997.11;;;14.93;54.20
37142;BME280;23041;49.816;20.092;2022-10-16T03:57:56;98003.41;;;14.94;54.22
37142;BME280;23041;49.816;20.092;2022-10-16T04:00:22;98012.78;;;14.96;54.28
37142;BME280;23041;49.816;20.092;2022-10-16T04:02:49;97993.62;;;15.02;54.31
37142;BME280;23041;49.816;20.092;2022-10-16T04:05:15;97999.80;;;15.06;54.35
37142;BME280;23041;49.816;20.092;2022-10-16T04:07:41;97995.84;;;15.11;54.34
37142;BME280;23041;49.816;20.092;2022-10-16T04:10:08;98010.20;;;15.24;54.35
37142;BME280;23041;49.816;20.092;2022-10-16T04:12:35;97998.55;;;15.29;54.32
37142;BME280;23041;49.816;20.092;2022-10-16T04:15:01;98013.95;;;15.34;54.26
37142;BME280;23041;49.816;20.092;2022-10-16T04:17:27;98009.81;;;15.39;54.21
37142;BME280;23041;49.816;20.092;2022-10-16T04:19:54;98009.53;;;15.41;54.18
37142;BME280;23041;49.816;20.092;2022-10-16T04:22:20;98010.47;;;15.43;54.13
37142;BME280;23041;49.816;20.092;2022-10-16T04:24:47;98014.63;;;15.43;54.11
37142;BME280;23041;49.816;20.092;2022-10-16T04:27:13;98037.98;;;15.46;54.09
37142;BME280;23041;49.816;20.092;2022-10-16T04:29:39;98019.73;;;15.49;54.06
37142;BME280;23041;49.816;20.092;2022-10-16T04:32:08;98015.58;;;15.49;54.05
37142;BME280;23041;49.816;20.092;2022-10-16T04:34:35;98008.66;;;15.49;54.02
37142;BME280;23041;49.816;20.092;2022-10-16T04:37:01;98029.23;;;15.48;54.01
37142;BME280;23041;49.816;20.092;2022-10-16T04:39:27;98015.58;;;15.49;54.00
37142;BME280;23041;49.816;20.092;2022-10-16T04:41:54;98010.65;;;15.48;53.96
37142;BME280;23041;49.816;20.092;2022-10-16T04:44:20;98011.55;;;15.45;53.94
37142;BME280;23041;49.816;20.092;2022-10-16T04:46:46;98032.13;;;15.44;53.92
37142;BME280;23041;49.816;20.092;2022-10-16T04:49:13;98018.13;;;15.43;53.92
37142;BME280;23041;49.816;20.092;2022-10-16T04:51:39;98014.75;;;15.44;53.90
37142;BME280;23041;49.816;20.092;2022-10-16T04:54:05;98018.91;;;15.44;53.87
37142;BME280;23041;49.816;20.092;2022-10-16T04:56:32;98019.05;;;15.40;53.85
37142;BME280;23041;49.816;20.092;2022-10-16T04:58:59;98015.95;;;15.38;53.86
37142;BME280;23041;49.816;20.092;2022-10-16T05:01:25;98034.08;;;15.35;53.89
37142;BME280;23041;49.816;20.092;2022-10-16T05:03:51;98017.93;;;15.33;53.88
37142;BME280;23041;49.816;20.092;2022-10-16T05:06:18;98029.93;;;15.35;53.90
37142;BME280;23041;49.816;20.092;2022-10-16T05:08:44;98025.45;;;15.33;53.88
37142;BME280;23041;49.816;20.092;2022-10-16T05:11:12;98038.34;;;15.31;53.90
37142;BME280;23041;49.816;20.092;2022-10-16T05:13:38;98034.06;;;15.30;53.91
37142;BME280;23041;49.816;20.092;2022-10-16T05:16:05;98046.34;;;15.29;53.90
37142;BME280;23041;49.816;20.092;2022-10-16T05:18:32;98045.73;;;15.30;53.92
37142;BME280;23041;49.816;20.092;2022-10-16T05:20:58;98049.71;;;15.29;53.91
37142;BME280;23041;49.816;20.092;2022-10-16T05:23:25;98045.73;;;15.30;53.94
37142;BME280;23041;49.816;20.092;2022-10-16T05:25:55;98039.59;;;15.30;53.96
37142;BME280;23041;49.816;20.092;2022-10-16T05:28:24;98046.20;;;15.33;53.96
37142;BME280;23041;49.816;20.092;2022-10-16T05:30:51;98045.91;;;15.35;53.95
37142;BME280;23041;49.816;20.092;2022-10-16T05:33:23;98049.92;;;15.39;53.96
37142;BME280;23041;49.816;20.092;2022-10-16T05:35:51;98049.80;;;15.42;53.95
37142;BME280;23041;49.816;20.092;2022-10-16T05:38:18;98049.52;;;15.49;53.94
37142;BME280;23041;49.816;20.092;2022-10-16T05:40:55;98045.30;;;15.58;53.93
37142;BME280;23041;49.816;20.092;2022-10-16T05:43:18;98052.11;;;15.66;53.87
37142;BME280;23041;49.816;20.092;2022-10-16T05:45:53;98046.44;;;15.74;53.82
37142;BME280;23041;49.816;20.092;2022-10-16T05:48:23;98049.27;;;15.83;53.77
37142;BME280;23041;49.816;20.092;2022-10-16T05:51:02;98054.05;;;15.91;53.71
37142;BME280;23041;49.816;20.092;2022-10-16T05:53:31;98062.39;;;15.96;53.64
37142;BME280;23041;49.816;20.092;2022-10-16T05:55:59;98055.94;;;16.04;53.56
37142;BME280;23041;49.816;20.092;2022-10-16T05:58:31;98064.41;;;16.09;53.44
37142;BME280;23041;49.816;20.092;2022-10-16T06:01:02;98064.63;;;16.19;53.35
37142;BME280;23041;49.816;20.092;2022-10-16T06:03:30;98091.88;;;16.25;53.23
37142;BME280;23041;49.816;20.092;2022-10-16T06:05:57;98060.80;;;16.35;53.08
37142;BME280;23041;49.816;20.092;2022-10-16T06:08:23;98076.53;;;16.43;52.99
37142;BME280;23041;49.816;20.092;2022-10-16T06:11:02;98069.77;;;16.57;52.88
37142;BME280;23041;49.816;20.092;2022-10-16T06:13:29;98079.20;;;16.69;52.75
37142;BME280;23041;49.816;20.092;2022-10-16T06:15:58;98071.22;;;16.89;52.61
37142;BME280;23041;49.816;20.092;2022-10-16T06:18:26;98071.39;;;17.04;52.43
37142;BME280;23041;49.816;20.092;2022-10-16T06:20:53;98071.69;;;17.15;52.16
37142;BME280;23041;49.816;20.092;2022-10-16T06:23:19;98074.13;;;17.31;51.92
37142;BME280;23041;49.816;20.092;2022-10-16T06:25:46;98086.25;;;17.52;51.64
37142;BME280;23041;49.816;20.092;2022-10-16T06:28:14;98081.34;;;17.61;51.35
37142;BME280;23041;49.816;20.092;2022-10-16T06:30:41;98090.87;;;17.60;51.09
37142;BME280;23041;49.816;20.092;2022-10-16T06:33:12;98092.39;;;17.79;50.96
37142;BME280;23041;49.816;20.092;2022-10-16T06:35:39;98095.69;;;18.10;50.73
37142;BME280;23041;49.816;20.092;2022-10-16T06:38:05;98093.75;;;18.25;50.41
37142;BME280;23041;49.816;20.092;2022-10-16T06:40:32;98093.94;;;18.22;50.04
37142;BME280;23041;49.816;20.092;2022-10-16T06:42:58;98104.34;;;18.36;49.80
37142;BME280;23041;49.816;20.092;2022-10-16T06:45:24;98104.44;;;18.79;49.56
37142;BME280;23041;49.816;20.092;2022-10-16T06:47:51;98130.39;;;19.24;49.30
37142;BME280;23041;49.816;20.092;2022-10-16T06:50:17;98141.55;;;19.72;48.66
37142;BME280;23041;49.816;20.092;2022-10-16T06:52:44;98140.70;;;19.81;47.63
37142;BME280;23041;49.816;20.092;2022-10-16T06:55:10;98140.70;;;19.81;47.63
37142;BME280;23041;49.816;20.092;2022-10-16T06:57:36;98123.89;;;19.75;47.09
37142;BME280;23041;49.816;20.092;2022-10-16T07:00:03;98140.89;;;19.92;47.12
37142;BME280;23041;49.816;20.092;2022-10-16T07:02:31;98135.58;;;19.84;46.60
37142;BME280;23041;49.816;20.092;2022-10-16T07:04:57;98145.52;;;19.95;46.29
37142;BME280;23041;49.816;20.092;2022-10-16T07:07:24;98140.66;;;20.00;46.03
37142;BME280;23041;49.816;20.092;2022-10-16T07:09:52;98137.45;;;19.82;45.94
37142;BME280;23041;49.816;20.092;2022-10-16T07:12:19;98137.45;;;19.82;45.94
37142;BME280;23041;49.816;20.092;2022-10-16T07:14:45;98144.28;;;19.62;45.42
37142;BME280;23041;49.816;20.092;2022-10-16T07:17:12;98143.56;;;19.57;45.41
37142;BME280;23041;49.816;20.092;2022-10-16T07:19:38;98144.87;;;20.10;45.42
37142;BME280;23041;49.816;20.092;2022-10-16T07:22:05;98140.02;;;21.92;45.01
37142;BME280;23041;49.816;20.092;2022-10-16T07:24:31;98154.38;;;24.25;44.26
37142;BME280;23041;49.816;20.092;2022-10-16T07:26:58;98131.42;;;25.35;42.50
37142;BME280;23041;49.816;20.092;2022-10-16T07:29:24;98143.42;;;26.65;40.75
37142;BME280;23041;49.816;20.092;2022-10-16T07:31:50;98138.28;;;27.92;39.09
37142;BME280;23041;49.816;20.092;2022-10-16T07:34:18;98147.91;;;28.99;37.33
37142;BME280;23041;49.816;20.092;2022-10-16T07:36:50;98152.35;;;29.81;35.83
37142;BME280;23041;49.816;20.092;2022-10-16T07:39:17;98141.05;;;29.75;34.34
37142;BME280;23041;49.816;20.092;2022-10-16T07:41:44;98145.38;;;29.89;33.42
37142;BME280;23041;49.816;20.092;2022-10-16T07:44:10;98143.21;;;29.15;32.77
37142;BME280;23041;49.816;20.092;2022-10-16T07:46:37;98142.26;;;27.65;32.45
37142;BME280;23041;49.816;20.092;2022-10-16T07:49:03;98165.34;;;25.94;32.61
37142;BME280;23041;49.816;20.092;2022-10-16T07:51:30;98153.03;;;24.88;33.08
37142;BME280;23041;49.816;20.092;2022-10-16T07:53:57;98147.63;;;24.33;33.66
37142;BME280;23041;49.816;20.092;2022-10-16T07:56:23;98160.36;;;24.00;34.15
37142;BME280;23041;49.816;20.092;2022-10-16T07:58:51;98152.45;;;23.99;34.54
37142;BME280;23041;49.816;20.092;2022-10-16T08:01:18;98151.41;;;24.08;34.80
37142;BME280;23041;49.816;20.092;2022-10-16T08:03:46;98147.74;;;24.12;34.97
37142;BME280;23041;49.816;20.092;2022-10-16T08:06:14;98159.67;;;23.79;35.08
37142;BME280;23041;49.816;20.092;2022-10-16T08:08:41;98170.19;;;23.30;35.24
37142;BME280;23041;49.816;20.092;2022-10-16T08:11:07;98146.98;;;22.86;35.50
37142;BME280;23041;49.816;20.092;2022-10-16T08:13:34;98153.12;;;22.96;35.83
37142;BME280;23041;49.816;20.092;2022-10-16T08:16:01;98172.93;;;22.87;35.98
37142;BME280;23041;49.816;20.092;2022-10-16T08:18:29;98159.23;;;22.73;36.18
37142;BME280;23041;49.816;20.092;2022-10-16T08:20:57;98160.80;;;22.79;36.41
37142;BME280;23041;49.816;20.092;2022-10-16T08:23:24;98161.52;;;22.96;36.49
37142;BME280;23041;49.816;20.092;2022-10-16T08:25:53;98164.61;;;22.82;36.57
37142;BME280;23041;49.816;20.092;2022-10-16T08:28:21;98168.56;;;22.80;36.74
37142;BME280;23041;49.816;20.092;2022-10-16T08:30:48;98169.12;;;22.90;36.84
37142;BME280;23041;49.816;20.092;2022-10-16T08:33:14;98172.80;;;22.70;36.81
37142;BME280;23041;49.816;20.092;2022-10-16T08:35:41;98167.84;;;22.54;36.91
37142;BME280;23041;49.816;20.092;2022-10-16T08:38:07;98178.48;;;22.28;37.07
37142;BME280;23041;49.816;20.092;2022-10-16T08:40:36;98174.32;;;21.92;37.26
37142;BME280;23041;49.816;20.092;2022-10-16T08:48:40;98177.03;;;21.00;38.22
37142;BME280;23041;49.816;20.092;2022-10-16T08:51:21;98181.27;;;20.86;38.55
37142;BME280;23041;49.816;20.092;2022-10-16T08:53:54;98196.67;;;20.81;38.88
37142;BME280;23041;49.816;20.092;2022-10-16T08:56:23;98183.24;;;21.00;39.08
37142;BME280;23041;49.816;20.092;2022-10-16T08:58:52;98186.18;;;21.01;39.18
37142;BME280;23041;49.816;20.092;2022-10-16T09:01:21;98193.27;;;20.92;39.29
37142;BME280;23041;49.816;20.092;2022-10-16T09:07:23;98184.19;;;20.76;39.52
37142;BME280;23041;49.816;20.092;2022-10-16T09:10:11;98189.84;;;20.82;39.69
37142;BME280;23041;49.816;20.092;2022-10-16T09:12:54;98194.41;;;21.00;39.82
37142;BME280;23041;49.816;20.092;2022-10-16T09:15:39;98189.73;;;21.11;39.90
37142;BME280;23041;49.816;20.092;2022-10-16T09:18:25;98194.55;;;21.11;39.93
37142;BME280;23041;49.816;20.092;2022-10-16T09:23:35;98198.95;;;20.97;40.04
37142;BME280;23041;49.816;20.092;2022-10-16T09:26:03;98207.42;;;20.78;40.14
37142;BME280;23041;49.816;20.092;2022-10-16T09:28:31;98205.72;;;20.66;40.27
37142;BME280;23041;49.816;20.092;2022-10-16T09:30:58;98204.48;;;20.52;40.44
37142;BME280;23041;49.816;20.092;2022-10-16T09:33:28;98218.52;;;20.28;40.59
37142;BME280;23041;49.816;20.092;2022-10-16T09:36:03;98210.03;;;20.13;40.81
37142;BME280;23041;49.816;20.092;2022-10-16T09:38:35;98211.65;;;20.05;41.02
37142;BME280;23041;49.816;20.092;2022-10-16T09:41:11;98212.50;;;19.96;41.15
37142;BME280;23041;49.816;20.092;2022-10-16T09:43:56;98209.86;;;19.82;41.29
37142;BME280;23041;49.816;20.092;2022-10-16T09:46:32;98234.99;;;19.73;41.54
37142;BME280;23041;49.816;20.092;2022-10-16T09:49:16;98214.50;;;19.66;41.70
37142;BME280;23041;49.816;20.092;2022-10-16T09:51:44;98216.06;;;19.63;41.90
37142;BME280;23041;49.816;20.092;2022-10-16T09:54:13;98222.25;;;19.62;42.06
37142;BME280;23041;49.816;20.092;2022-10-16T09:56:42;98210.59;;;19.68;42.21
37142;BME280;23041;49.816;20.092;2022-10-16T09:59:15;98223.27;;;19.88;42.31
37142;BME280;23041;49.816;20.092;2022-10-16T10:01:48;98217.67;;;20.08;42.23
37142;BME280;23041;49.816;20.092;2022-10-16T10:04:18;98217.42;;;20.30;42.08
37142;BME280;23041;49.816;20.092;2022-10-16T10:06:54;98230.06;;;20.51;42.22
37142;BME280;23041;49.816;20.092;2022-10-16T10:09:32;98208.97;;;20.79;41.74
37142;BME280;23041;49.816;20.092;2022-10-16T10:12:14;98209.56;;;21.13;41.54
37142;BME280;23041;49.816;20.092;2022-10-16T10:14:47;98208.20;;;21.44;41.12
37142;BME280;23041;49.816;20.092;2022-10-16T10:17:18;98205.86;;;21.73;40.74
37142;BME280;23041;49.816;20.092;2022-10-16T10:19:54;98213.89;;;22.11;40.36
37142;BME280;23041;49.816;20.092;2022-10-16T10:22:44;98220.79;;;22.73;39.98
37142;BME280;23041;49.816;20.092;2022-10-16T10:30:56;98219.99;;;25.18;36.89
37142;BME280;23041;49.816;20.092;2022-10-16T10:33:47;98219.54;;;24.69;36.25
37142;BME280;23041;49.816;20.092;2022-10-16T10:39:19;98225.53;;;24.50;35.90
37142;BME280;23041;49.816;20.092;2022-10-16T10:45:12;98228.08;;;24.31;35.92
37142;BME280;23041;49.816;20.092;2022-10-16T10:48:02;98228.48;;;24.46;36.01
37142;BME280;23041;49.816;20.092;2022-10-16T10:50:52;98229.64;;;24.55;35.95
37142;BME280;23041;49.816;20.092;2022-10-16T10:53:57;98210.98;;;25.94;35.74
37142;BME280;23041;49.816;20.092;2022-10-16T10:56:48;98226.18;;;27.78;34.78
37142;BME280;23041;49.816;20.092;2022-10-16T11:08:11;98226.72;;;34.94;27.91
37142;BME280;23041;49.816;20.092;2022-10-16T11:13:52;98228.00;;;34.34;26.21
37142;BME280;23041;49.816;20.092;2022-10-16T11:16:30;98215.03;;;32.24;25.67
37142;BME280;23041;49.816;20.092;2022-10-16T11:19:33;98237.05;;;30.54;25.92
37142;BME280;23041;49.816;20.092;2022-10-16T11:24:48;98226.56;;;28.25;26.64
37142;BME280;23041;49.816;20.092;2022-10-16T11:27:23;98224.29;;;27.43;27.23
37142;BME280;23041;49.816;20.092;2022-10-16T11:29:58;98231.70;;;26.37;27.85
37142;BME280;23041;49.816;20.092;2022-10-16T11:32:30;98231.08;;;25.63;28.48
37142;BME280;23041;49.816;20.092;2022-10-16T11:35:07;98237.00;;;24.97;29.20
37142;BME280;23041;49.816;20.092;2022-10-16T11:37:41;98233.08;;;24.49;29.77
37142;BME280;23041;49.816;20.092;2022-10-16T11:42:50;98225.94;;;23.82;30.93
37142;BME280;23041;49.816;20.092;2022-10-16T11:48:02;98233.32;;;24.39;31.61
37142;BME280;23041;49.816;20.092;2022-10-16T11:50:53;98234.83;;;25.07;31.74
37142;BME280;23041;49.816;20.092;2022-10-16T11:53:53;98241.09;;;25.47;31.74
37142;BME280;23041;49.816;20.092;2022-10-16T11:56:25;98243.27;;;25.02;31.63
37142;BME280;23041;49.816;20.092;2022-10-16T12:01:31;98233.98;;;23.95;32.03
37142;BME280;23041;49.816;20.092;2022-10-16T12:07:08;98245.07;;;23.30;32.85
37142;BME280;23041;49.816;20.092;2022-10-16T12:09:40;98239.37;;;22.92;33.18
37142;BME280;23041;49.816;20.092;2022-10-16T12:12:26;98231.28;;;22.68;33.54
37142;BME280;23041;49.816;20.092;2022-10-16T12:17:49;98235.80;;;22.60;34.17
37142;BME280;23041;49.816;20.092;2022-10-16T12:20:23;98240.20;;;22.40;34.48
37142;BME280;23041;49.816;20.092;2022-10-16T12:23:06;98245.48;;;22.64;34.75
37142;BME280;23041;49.816;20.092;2022-10-16T12:25:36;98244.56;;;23.96;34.97
37142;BME280;23041;49.816;20.092;2022-10-16T12:31:03;98255.39;;;24.70;34.09
37142;BME280;23041;49.816;20.092;2022-10-16T12:33:33;98248.89;;;25.02;33.94
37142;BME280;23041;49.816;20.092;2022-10-16T12:36:05;98247.41;;;27.17;33.58
37142;BME280;23041;49.816;20.092;2022-10-16T12:38:50;98249.98;;;29.61;32.56
37142;BME280;23041;49.816;20.092;2022-10-16T12:43:57;98249.47;;;33.49;29.79
37142;BME280;23041;49.816;20.092;2022-10-16T12:51:44;98260.47;;;35.47;26.31
37142;BME280;23041;49.816;20.092;2022-10-16T12:54:28;98248.56;;;35.67;25.17
37142;BME280;23041;49.816;20.092;2022-10-16T13:08:42;98254.23;;;36.27;22.97
37142;BME280;23041;49.816;20.092;2022-10-16T13:23:15;98263.73;;;33.03;22.52
37142;BME280;23041;49.816;20.092;2022-10-16T13:28:38;98263.44;;;30.15;23.81
37142;BME280;23041;49.816;20.092;2022-10-16T13:31:05;98264.75;;;29.15;24.46
37142;BME280;23041;49.816;20.092;2022-10-16T13:33:39;98267.45;;;27.99;25.18
37142;BME280;23041;49.816;20.092;2022-10-16T13:36:26;98279.06;;;26.69;26.12
37142;BME280;23041;49.816;20.092;2022-10-16T13:39:13;98270.87;;;25.83;27.12
37142;BME280;23041;49.816;20.092;2022-10-16T13:42:12;98270.13;;;25.37;28.10
37142;BME280;23041;49.816;20.092;2022-10-16T13:44:44;98275.70;;;25.88;28.90
37142;BME280;23041;49.816;20.092;2022-10-16T13:47:27;98278.20;;;25.69;29.32
37142;BME280;23041;49.816;20.092;2022-10-16T13:50:12;98272.86;;;25.65;29.74
37142;BME280;23041;49.816;20.092;2022-10-16T13:52:40;98278.41;;;25.42;30.12
37142;BME280;23041;49.816;20.092;2022-10-16T13:55:18;98280.53;;;25.13;30.49
37142;BME280;23041;49.816;20.092;2022-10-16T13:57:45;98289.35;;;24.94;30.81
37142;BME280;23041;49.816;20.092;2022-10-16T14:03:04;98297.36;;;24.69;31.53
37142;BME280;23041;49.816;20.092;2022-10-16T14:05:32;98298.60;;;24.29;31.83
37142;BME280;23041;49.816;20.092;2022-10-16T14:07:59;98287.17;;;24.06;32.29
37142;BME280;23041;49.816;20.092;2022-10-16T14:10:28;98298.56;;;23.85;32.70
37142;BME280;23041;49.816;20.092;2022-10-16T14:12:58;98304.11;;;23.69;33.16
37142;BME280;23041;49.816;20.092;2022-10-16T14:15:33;98302.02;;;23.42;33.46
37142;BME280;23041;49.816;20.092;2022-10-16T14:18:01;98302.31;;;23.23;33.88
37142;BME280;23041;49.816;20.092;2022-10-16T14:20:31;98305.08;;;23.17;34.29
37142;BME280;23041;49.816;20.092;2022-10-16T14:26:12;98314.13;;;22.86;34.72
37142;BME280;23041;49.816;20.092;2022-10-16T14:28:42;98312.19;;;22.71;34.99
37142;BME280;23041;49.816;20.092;2022-10-16T14:31:26;98311.17;;;22.43;35.23
37142;BME280;23041;49.816;20.092;2022-10-16T14:33:55;98315.78;;;22.20;35.65
37142;BME280;23041;49.816;20.092;2022-10-16T14:36:23;98321.76;;;21.97;36.03
37142;BME280;23041;49.816;20.092;2022-10-16T14:39:05;98318.66;;;21.85;36.29
37142;BME280;23041;49.816;20.092;2022-10-16T14:41:41;98320.04;;;21.75;36.54
37142;BME280;23041;49.816;20.092;2022-10-16T14:44:06;98320.67;;;21.54;36.81
37142;BME280;23041;49.816;20.092;2022-10-16T14:46:36;98318.36;;;21.53;37.05
37142;BME280;23041;49.816;20.092;2022-10-16T14:51:42;98318.77;;;21.46;37.59
37142;BME280;23041;49.816;20.092;2022-10-16T14:54:15;98328.50;;;21.50;37.85
37142;BME280;23041;49.816;20.092;2022-10-16T14:56:48;98314.72;;;21.37;38.04
37142;BME280;23041;49.816;20.092;2022-10-16T14:59:40;98318.84;;;21.31;38.20
37142;BME280;23041;49.816;20.092;2022-10-16T15:02:35;98307.55;;;21.15;38.37
37142;BME280;23041;49.816;20.092;2022-10-16T15:05:19;98307.57;;;21.01;38.61
37142;BME280;23041;49.816;20.092;2022-10-16T15:07:49;98309.06;;;20.92;38.89